LTCF Airport Information

Runway Information
Runway 06 Length 11483 ft width 148 ft
Elevation 5873 ft Threshold 0 ft Heading 64
Runway 24 Length 11483 ft Width 148 ft
Elevation 5869 ft Threshold 0 ft Heading 244
Airport Frequencies
Type TWR Name TWR Frequency 122.4 MHZ
Airport Navaids
Type VOR-DME Name Kars Frequency 113800 KHZ
Type NDB Name Kars Frequency 431 KHZ
Airport Weather Information & NOTAM
ADDS - METARS form results

(2008 UTC 22 July 2018)
 
METAR text: LTCF 221950Z 00000KT 9999 SCT035 BKN070 14/12 Q1015
Conditions at: LTCF (KARS , TR) observed 1950 UTC 22 July 2018
Temperature: 14.0°C (57°F)
Dewpoint: 12.0°C (54°F) [RH = 88%]
Pressure (altimeter): 29.97 inches Hg (1015.0 mb)
Winds: calm
Visibility: 6 or more miles (10+ km)
Ceiling: 7000 feet AGL
Clouds: scattered clouds at 3500 feet AGL
broken clouds at 7000 feet AGL
Weather: no significant weather observed at this time